Boulder City, Nevada Weather observations

Data are for observation ending at time listed.
 Day   Time    Ave.   Ave.  Ave.  Vector   Max.   Stn.    Total    Solar   Ave.  
  of    of     Air    Rel.  Wind   Wind    Wind   Baro.  Precip.   Rad.    Soil  
Year   Day     Temp.  Hum.  Speed  Dir.    Gust   Pres.                    Temp. 
2016   (PST)    F      %     mph   deg.    mph     mb.     in.     W/m2     F   
------------------------------------------------------------------------------
 121   19:40   55.9    75    1.8     5      3.5   925.5    0.00       0    66.7
 121   19:50   55.6    77    0.8   334      3.2   925.6    0.00       0    66.6
 121   20:00   55.6    76    2.3     7      5.4   925.7    0.00       0    66.5
 121   20:10   56.3    72    2.2    19      5.6   925.7    0.00       0    66.4
 121   20:20   56.0    75    1.9    20      4.0   925.9    0.00       0    66.3
 121   20:30   56.0    74    1.6   354      3.3   925.9    0.00       0    66.2
 121   20:40   56.0    73    2.5     4      5.1   926.0    0.00       0    66.1
 121   20:50   56.0    73    2.2     4      4.5   925.9    0.00       0    66.0
 121   21:00   55.7    75    2.4    15      5.4   925.9    0.00       0    65.9
 121   21:10   56.2    72    2.4    12      4.1   925.9    0.00       0    65.8
 121   21:20   56.4    71    1.9   358      3.6   925.8    0.00       0    65.7
 121   21:30   56.7    68    2.2     1      6.1   925.6    0.00       0    65.7
 121   21:40   57.3    68    2.4   315      9.0   925.5    0.00       0    65.6
 121   21:50   56.6    73    3.5   320     11.0   925.5    0.00       0    65.5
 121   22:00   57.6    66    4.0    10     12.7   925.5    0.00       0    65.4
 121   22:10   58.6    62    3.5     6      6.9   925.5    0.00       0    65.3
 121   22:20   58.6    62    4.3     0      8.3   925.5    0.00       0    65.2
 121   22:30   58.1    64    4.0    16      8.6   925.6    0.00       0    65.1
 121   22:40   57.9    64    3.5    11      7.5   925.7    0.00       0    65.0
 121   22:50   57.6    66    4.4    14     11.2   925.8    0.00       0    64.9
 121   23:00   57.4    67    3.3     1      7.2   926.0    0.00       0    64.8
 121   23:10   57.5    66    3.2     4      6.6   926.0    0.00       0    64.7
 121   23:20   57.5    66    3.0     9      5.0   926.1    0.00       0    64.6
 121   23:30   57.4    65    3.1     2      6.5   926.1    0.00       0    64.5
 121   23:40   57.9    63    2.8   353      5.0   926.1    0.00       0    64.5
 121   23:50   57.8    63    1.9   359      4.2   926.1    0.00       0    64.4
 122    0:00   57.0    66    0.7   122      2.2   926.1    0.00       0    64.3
 122    0:10   55.6    73    3.4   194      6.3   926.0    0.00       0    64.2
 122    0:20   54.7    76    2.0   226      4.7   925.9    0.00       0    64.1
 122    0:30   54.1    78    2.9   214      4.0   925.8    0.00       0    64.1
 122    0:40   53.8    79    2.5   220      4.1   925.7    0.00       0    64.0
 122    0:50   54.2    76    1.6   220      3.3   925.6    0.00       0    63.9
 122    1:00   54.7    74    0.9    36      3.4   925.6    0.00       0    63.8
 122    1:10   56.5    66    2.5     3      5.9   925.6    0.00       0    63.7
 122    1:20   56.9    65    1.7     6      5.6   925.6    0.00       0    63.6
 122    1:30   57.4    63    2.2    11      6.1   925.7    0.00       0    63.6
 122    1:40   56.9    65    1.8    31      4.1   925.8    0.00       0    63.5
 122    1:50   56.9    65    0.6    14      2.2   925.8    0.00       0    63.4
 122    2:00   56.8    64    1.0     6      4.7   925.8    0.00       0    63.4
 122    2:10   56.8    64    0.9    13      2.2   925.8    0.00       0    63.3
 122    2:20   56.5    64    1.1    20      2.7   925.8    0.00       0    63.2
 122    2:30   56.4    65    0.5     9      1.5   925.8    0.00       0    63.2
 122    2:40   55.9    66    0.4    22      3.0   925.9    0.00       0    63.1
 122    2:50   55.6    67    0.3    52      1.4   925.8    0.00       0    63.0
 122    3:00   55.3    67    0.6    17      1.2   925.9    0.00       0    63.0
 122    3:10   55.1    67    0.1   287      1.7   926.0    0.00       0    62.9
 122    3:20   54.4    70    1.2   243      2.2   926.0    0.00       0    62.9
 122    3:30   53.1    75    2.2   232      3.0   926.0    0.00       0    62.8
 122    3:40   52.7    75    2.4   235      3.5   926.0    0.00       0    62.7
 122    3:50   54.6    70    3.0   304      8.8   926.0    0.00       0    62.7
 122    4:00   55.8    68    2.7   311      9.0   925.9    0.00       0    62.6
 122    4:10   55.9    66    1.2   308      5.1   926.1    0.00       0    62.6
 122    4:20   55.1    66    0.3    66      1.8   926.1    0.00       0    62.5
 122    4:30   54.9    65    0.9   345      3.1   926.2    0.00       0    62.4
 122    4:40   55.5    62    1.5   358      4.1   926.2    0.00       0    62.3
 122    4:50   56.9    56    2.2   357      5.3   926.3    0.00       3    62.3
 122    5:00   57.7    54    3.2   355      7.2   926.4    0.00       8    62.2
 122    5:10   58.8    50    3.7   353      7.2   926.4    0.00      20    62.2
 122    5:20   59.4    49    4.1   352      9.8   926.5    0.00      23    62.1
 122    5:30   60.3    47    3.8   357      8.6   926.8    0.00      52    62.1
 122    5:40   60.6    47    4.4     6     10.4   927.0    0.00     127    62.0
 122    5:50   60.7    46    4.3     1      9.9   927.2    0.00      96    61.9
 122    6:00   60.2    47    4.4   356      8.9   927.3    0.00      87    61.8
 122    6:10   61.1    45    4.3     8      8.3   927.5    0.00     209    61.8
 122    6:20   62.2    43    4.1     4     10.0   927.8    0.00     262    61.8
 122    6:30   62.9    43    3.5     6      8.2   928.0    0.00     295    61.7
 122    6:40   63.5    42    3.2    10      7.6   928.2    0.00     330    61.7
 122    6:50   63.4    42    4.5    16      9.6   928.3    0.00     365    61.7
 122    7:00   63.6    42    3.9    15     10.0   928.5    0.00     401    61.7
 122    7:10   64.0    43    3.6     4      8.6   928.6    0.00     437    61.7
 122    7:20   64.1    41    4.7    14      9.8   928.8    0.00     473    61.8
 122    7:30   65.0    40    3.4    10      8.9   928.9    0.00     506    61.9
 122    7:40   64.8    41    4.7    22     10.1   929.0    0.00     536    62.0
 122    7:50   65.5    43    4.1    15      7.7   929.0    0.00     563    62.1
 122    8:00   66.0    40    5.8    24     11.8   929.1    0.00     599    62.3
 122    8:10   65.5    38    7.3    20     14.7   929.3    0.00     627    62.4
 122    8:20   65.5    42    5.0    23     10.7   929.3    0.00     653    62.7
 122    8:30   66.1    40    4.9    16      9.6   929.4    0.00     679    62.9
 122    8:40   66.5    38    4.5    11     10.8   929.5    0.00     705    63.1
 122    8:50   66.2    38    5.6    22     12.2   929.6    0.00     731    63.4
 122    9:00   66.6    37    6.0    30     12.7   929.7    0.00     755    63.7
 122    9:10   66.6    37    4.5    29     10.6   929.8    0.00     778    64.0
 122    9:20   67.5    37    4.6    33     10.5   929.8    0.00     721    64.3
 122    9:30   67.7    36    5.0    26     11.1   929.9    0.00     444    64.6
 122    9:40   68.1    36    4.7    20      9.5   930.0    0.00     521    65.0
 122    9:50   67.6    35    5.3    28     10.2   930.1    0.00     406    65.4
 122   10:00   68.1    35    4.7    24     12.9   930.1    0.00     699    65.8
 122   10:10   68.6    34    3.9    39      9.8   930.1    0.00     832    66.1
 122   10:20   68.7    34    4.7    29     10.7   930.1    0.00     860    66.6
 122   10:30   69.1    33    4.5    26      9.5   930.2    0.00     874    67.0
 122   10:40   69.4    33    4.6    46     10.6   930.1    0.00     851    67.4
 122   10:50   70.0    32    4.8    28      9.5   930.2    0.00     911    67.8
 122   11:00   70.1    32    4.7    28     12.3   930.1    0.00     871    68.3
 122   11:10   69.9    32    4.7    32     10.5   930.1    0.00     827    68.7
 122   11:20   70.8    31    4.1    47      9.1   930.0    0.00     769    69.2
 122   11:30   70.8    30    3.6    36      8.0   929.9    0.00     947    69.6
 122   11:40   71.2    29    3.5    35      9.8   930.0    0.00     950    70.1
 122   11:50   71.6    29    5.2    38     13.2   930.0    0.00     951    70.5
 122   12:00   71.8    28    4.6    16     10.1   930.0    0.00     948    71.0
 122   12:10   71.6    28    3.5    26      8.2   930.0    0.00     945    71.4
 122   12:20   72.3    28    4.8    35     10.8   930.0    0.00     941    71.8
 122   12:30   72.3    27    2.9    44      8.0   930.0    0.00     935    72.2
 122   12:40   72.3    27    4.8    46     11.2   930.0    0.00     927    72.6
 122   12:50   72.7    27    3.5    54      7.6   930.0    0.00     918    73.0
 122   13:00   72.7    27    4.2    36     10.2   929.9    0.00     907    73.4
 122   13:10   73.3    26    3.7    32      8.3   930.0    0.00     895    73.7
 122   13:20   73.4    26    4.0    40      9.6   930.1    0.00     884    74.1
 122   13:30   73.9    25    3.5    91      7.0   930.1    0.00     872    74.5
 122   13:40   74.1    24    4.3    37     10.7   930.1    0.00     854    74.8
 122   13:50   74.2    24    3.2    23      8.8   930.2    0.00     847    75.2
 122   14:00   74.6    24    4.8    28     10.5   930.2    0.00     841    75.5
 122   14:10   74.6    24    4.7    25     11.5   930.3    0.00     813    75.8
 122   14:20   74.6    23    2.8    13      7.3   930.3    0.00     794    76.1
 122   14:30   74.9    23    3.4    50      8.9   930.1    0.00     543    76.3
 122   14:40   73.9    23    4.6     5     11.9   930.1    0.00     585    76.6
 122   14:50   75.4    21    3.1     9      9.1   930.0    0.00     672    76.8
 122   15:00   75.3    21    3.3    22      8.9   930.0    0.00     683    76.9
 122   15:10   75.3    20    4.4    31      8.6   930.0    0.00     464    77.1
 122   15:20   73.8    22    2.4    26      6.7   929.9    0.00     419    77.1
 122   15:30   75.1    21    2.5    34      4.9   929.8    0.00     418    77.1
 122   15:40   76.2    20    3.3    35      8.4   929.9    0.00     565    77.0
 122   15:50   75.8    21    2.3    42      6.1   929.9    0.00     439    76.9
 122   16:00   74.8    22    2.7    44      6.7   929.9    0.00     298    76.8
 122   16:10   74.9    21    2.6    48      6.4   929.9    0.00     315    76.6
 122   16:20   74.9    22    3.5    38      7.3   929.9    0.00     316    76.5
 122   16:30   75.6    21    3.6    82      7.7   929.9    0.00     352    76.4
 122   16:40   75.6    20    3.4    61      6.8   929.9    0.00     334    76.4
 122   16:50   75.7    20    3.8    56      7.1   929.9    0.00     321    76.3
 122   17:00   75.5    20    1.6    42      4.6   929.9    0.00     266    76.2
 122   17:10   75.4    21    2.3    32      7.4   929.8    0.00     205    76.2
 122   17:20   73.6    22    2.7     7      5.3   929.6    0.00     163    76.1
 122   17:30   72.7    22    2.2    17      5.4   929.5    0.00     106    76.0
 122   17:40   72.4    23    0.8    28      2.9   929.4    0.00      73    75.9
 122   17:50   71.9    24    1.5   360      3.8   929.4    0.00      24    75.8
 122   18:00   71.6    24    0.3     9      2.2   929.5    0.00      18    75.6
 122   18:10   70.9    26    0.1   339      0.8   929.5    0.00      15    75.5
 122   18:20   70.4    26    0.3   311      1.2   929.4    0.00      11    75.3
 122   18:30   70.0    28    0.7   293      1.5   929.5    0.00       6    75.1
 122   18:40   69.4    31    0.7   271      1.4   929.6    0.00       3    74.9
 122   18:50   68.4    33    0.9   272      1.7   929.7    0.00       0    74.7
 122   19:00   67.7    34    1.2   259      2.3   929.8    0.00       0    74.6
 122   19:10   67.3    35    1.8   255      2.9   929.8    0.00       0    74.4
 122   19:20   67.2    35    1.5   258      2.1   929.9    0.00       0    74.2
 122   19:30   67.0    35    1.6   259      2.7   930.0    0.00       0    74.0

Return to Boulder City, Nevada graphs page.


Western Regional Climate Center,wrcc@dri.edu